sensor_id;sensor_type;location;lat;lon;timestamp;P1;durP1;ratioP1;P2;durP2;ratioP2
80870;SDS011;70296;49.226;-122.884;2023-11-21T00:02:04;5.85;;;1.90;;
80870;SDS011;70296;49.226;-122.884;2023-11-21T00:04:30;7.65;;;1.90;;
80870;SDS011;70296;49.226;-122.884;2023-11-21T00:06:58;2.97;;;1.40;;
80870;SDS011;70296;49.226;-122.884;2023-11-21T00:09:25;6.22;;;2.70;;
80870;SDS011;70296;49.226;-122.884;2023-11-21T00:11:55;5.40;;;2.00;;
80870;SDS011;70296;49.226;-122.884;2023-11-21T00:14:22;4.70;;;1.80;;
80870;SDS011;70296;49.226;-122.884;2023-11-21T00:16:48;5.03;;;2.00;;
80870;SDS011;70296;49.226;-122.884;2023-11-21T00:19:14;6.18;;;2.53;;
80870;SDS011;70296;49.226;-122.884;2023-11-21T00:21:42;4.72;;;2.22;;
80870;SDS011;70296;49.226;-122.884;2023-11-21T00:24:10;4.20;;;1.70;;
80870;SDS011;70296;49.226;-122.884;2023-11-21T00:26:39;7.05;;;2.10;;
80870;SDS011;70296;49.226;-122.884;2023-11-21T00:29:05;7.18;;;2.08;;
80870;SDS011;70296;49.226;-122.884;2023-11-21T00:31:36;4.32;;;1.95;;
80870;SDS011;70296;49.226;-122.884;2023-11-21T00:34:05;3.50;;;1.73;;
80870;SDS011;70296;49.226;-122.884;2023-11-21T00:36:32;6.45;;;1.50;;
80870;SDS011;70296;49.226;-122.884;2023-11-21T00:38:58;6.78;;;2.08;;
80870;SDS011;70296;49.226;-122.884;2023-11-21T00:41:25;3.92;;;2.10;;
80870;SDS011;70296;49.226;-122.884;2023-11-21T00:43:54;6.32;;;1.75;;
80870;SDS011;70296;49.226;-122.884;2023-11-21T00:46:20;4.97;;;1.95;;
80870;SDS011;70296;49.226;-122.884;2023-11-21T00:48:47;5.35;;;2.00;;
80870;SDS011;70296;49.226;-122.884;2023-11-21T00:51:13;6.03;;;1.95;;
80870;SDS011;70296;49.226;-122.884;2023-11-21T00:53:39;4.68;;;1.90;;
80870;SDS011;70296;49.226;-122.884;2023-11-21T00:56:07;5.63;;;2.00;;
80870;SDS011;70296;49.226;-122.884;2023-11-21T00:58:34;6.00;;;2.00;;
80870;SDS011;70296;49.226;-122.884;2023-11-21T01:01:00;7.28;;;1.98;;
80870;SDS011;70296;49.226;-122.884;2023-11-21T01:03:27;9.45;;;2.78;;
80870;SDS011;70296;49.226;-122.884;2023-11-21T01:05:54;4.95;;;2.00;;
80870;SDS011;70296;49.226;-122.884;2023-11-21T01:08:20;6.82;;;2.80;;
80870;SDS011;70296;49.226;-122.884;2023-11-21T01:10:46;6.90;;;3.05;;
80870;SDS011;70296;49.226;-122.884;2023-11-21T01:13:13;10.23;;;2.67;;
80870;SDS011;70296;49.226;-122.884;2023-11-21T01:15:40;10.68;;;2.97;;
80870;SDS011;70296;49.226;-122.884;2023-11-21T01:18:07;7.30;;;2.00;;
80870;SDS011;70296;49.226;-122.884;2023-11-21T01:20:36;7.65;;;2.40;;
80870;SDS011;70296;49.226;-122.884;2023-11-21T01:23:02;11.85;;;2.83;;
80870;SDS011;70296;49.226;-122.884;2023-11-21T01:25:29;8.32;;;2.85;;
80870;SDS011;70296;49.226;-122.884;2023-11-21T01:27:55;5.78;;;2.35;;
80870;SDS011;70296;49.226;-122.884;2023-11-21T01:30:21;9.13;;;2.80;;
80870;SDS011;70296;49.226;-122.884;2023-11-21T01:32:48;13.13;;;3.03;;
80870;SDS011;70296;49.226;-122.884;2023-11-21T01:35:14;5.63;;;2.53;;
80870;SDS011;70296;49.226;-122.884;2023-11-21T01:37:40;8.88;;;3.17;;
80870;SDS011;70296;49.226;-122.884;2023-11-21T01:40:07;7.75;;;3.22;;
80870;SDS011;70296;49.226;-122.884;2023-11-21T01:42:38;5.97;;;2.42;;
80870;SDS011;70296;49.226;-122.884;2023-11-21T01:45:05;8.05;;;3.10;;
80870;SDS011;70296;49.226;-122.884;2023-11-21T01:47:32;8.35;;;3.08;;
80870;SDS011;70296;49.226;-122.884;2023-11-21T01:50:00;11.38;;;3.30;;
80870;SDS011;70296;49.226;-122.884;2023-11-21T01:52:26;8.35;;;2.67;;
80870;SDS011;70296;49.226;-122.884;2023-11-21T01:54:53;8.50;;;3.58;;
80870;SDS011;70296;49.226;-122.884;2023-11-21T01:57:19;12.20;;;3.47;;
80870;SDS011;70296;49.226;-122.884;2023-11-21T01:59:46;10.60;;;4.18;;
80870;SDS011;70296;49.226;-122.884;2023-11-21T02:02:12;8.57;;;3.13;;
80870;SDS011;70296;49.226;-122.884;2023-11-21T02:04:39;8.45;;;3.50;;
80870;SDS011;70296;49.226;-122.884;2023-11-21T02:07:06;8.90;;;3.03;;
80870;SDS011;70296;49.226;-122.884;2023-11-21T02:09:32;5.45;;;3.00;;
80870;SDS011;70296;49.226;-122.884;2023-11-21T02:11:59;8.18;;;2.80;;
80870;SDS011;70296;49.226;-122.884;2023-11-21T02:14:26;8.38;;;2.53;;
80870;SDS011;70296;49.226;-122.884;2023-11-21T02:16:53;4.95;;;2.35;;
80870;SDS011;70296;49.226;-122.884;2023-11-21T02:19:22;7.30;;;3.13;;
80870;SDS011;70296;49.226;-122.884;2023-11-21T02:21:53;7.43;;;2.95;;
80870;SDS011;70296;49.226;-122.884;2023-11-21T02:24:23;9.05;;;2.97;;
80870;SDS011;70296;49.226;-122.884;2023-11-21T02:26:49;6.72;;;2.95;;
80870;SDS011;70296;49.226;-122.884;2023-11-21T02:29:23;8.38;;;2.70;;
80870;SDS011;70296;49.226;-122.884;2023-11-21T02:31:58;6.18;;;2.88;;
80870;SDS011;70296;49.226;-122.884;2023-11-21T02:34:25;6.22;;;2.20;;
80870;SDS011;70296;49.226;-122.884;2023-11-21T02:36:52;9.18;;;3.58;;
80870;SDS011;70296;49.226;-122.884;2023-11-21T02:39:19;6.60;;;2.58;;
80870;SDS011;70296;49.226;-122.884;2023-11-21T02:41:47;9.30;;;2.90;;
80870;SDS011;70296;49.226;-122.884;2023-11-21T02:44:14;7.55;;;2.75;;
80870;SDS011;70296;49.226;-122.884;2023-11-21T02:46:40;5.45;;;2.33;;
80870;SDS011;70296;49.226;-122.884;2023-11-21T02:49:06;7.25;;;2.88;;
80870;SDS011;70296;49.226;-122.884;2023-11-21T02:51:35;7.45;;;2.70;;
80870;SDS011;70296;49.226;-122.884;2023-11-21T02:54:03;5.57;;;2.60;;
80870;SDS011;70296;49.226;-122.884;2023-11-21T02:56:32;5.20;;;2.20;;
80870;SDS011;70296;49.226;-122.884;2023-11-21T02:59:01;5.30;;;2.55;;
80870;SDS011;70296;49.226;-122.884;2023-11-21T03:01:27;8.18;;;2.88;;
80870;SDS011;70296;49.226;-122.884;2023-11-21T03:03:54;5.78;;;2.33;;
80870;SDS011;70296;49.226;-122.884;2023-11-21T03:06:21;5.50;;;2.28;;
80870;SDS011;70296;49.226;-122.884;2023-11-21T03:08:47;7.22;;;2.75;;
80870;SDS011;70296;49.226;-122.884;2023-11-21T03:11:13;5.30;;;2.30;;
80870;SDS011;70296;49.226;-122.884;2023-11-21T03:13:40;5.70;;;2.78;;
80870;SDS011;70296;49.226;-122.884;2023-11-21T03:16:08;5.43;;;2.40;;
80870;SDS011;70296;49.226;-122.884;2023-11-21T03:18:42;6.95;;;3.15;;
80870;SDS011;70296;49.226;-122.884;2023-11-21T03:21:09;8.15;;;2.60;;
80870;SDS011;70296;49.226;-122.884;2023-11-21T03:23:37;7.32;;;2.97;;
80870;SDS011;70296;49.226;-122.884;2023-11-21T03:26:03;6.63;;;3.20;;
80870;SDS011;70296;49.226;-122.884;2023-11-21T03:28:30;5.75;;;2.47;;
80870;SDS011;70296;49.226;-122.884;2023-11-21T03:30:56;5.03;;;2.67;;
80870;SDS011;70296;49.226;-122.884;2023-11-21T03:33:22;5.97;;;2.92;;
80870;SDS011;70296;49.226;-122.884;2023-11-21T03:35:48;6.43;;;3.00;;
80870;SDS011;70296;49.226;-122.884;2023-11-21T03:38:15;6.10;;;2.80;;
80870;SDS011;70296;49.226;-122.884;2023-11-21T03:40:41;7.68;;;3.20;;
80870;SDS011;70296;49.226;-122.884;2023-11-21T03:43:09;8.13;;;2.95;;
80870;SDS011;70296;49.226;-122.884;2023-11-21T03:45:35;8.07;;;3.03;;
80870;SDS011;70296;49.226;-122.884;2023-11-21T03:48:01;5.93;;;2.65;;
80870;SDS011;70296;49.226;-122.884;2023-11-21T03:50:31;5.82;;;3.05;;
80870;SDS011;70296;49.226;-122.884;2023-11-21T03:52:58;6.63;;;2.67;;
80870;SDS011;70296;49.226;-122.884;2023-11-21T03:55:25;6.95;;;2.75;;
80870;SDS011;70296;49.226;-122.884;2023-11-21T03:57:52;8.25;;;2.85;;
80870;SDS011;70296;49.226;-122.884;2023-11-21T04:00:18;6.57;;;2.90;;
80870;SDS011;70296;49.226;-122.884;2023-11-21T04:02:47;5.80;;;2.65;;
80870;SDS011;70296;49.226;-122.884;2023-11-21T04:05:13;9.27;;;3.78;;
80870;SDS011;70296;49.226;-122.884;2023-11-21T04:07:45;6.50;;;3.83;;
80870;SDS011;70296;49.226;-122.884;2023-11-21T04:10:11;9.82;;;4.40;;
80870;SDS011;70296;49.226;-122.884;2023-11-21T04:12:38;7.25;;;3.97;;
80870;SDS011;70296;49.226;-122.884;2023-11-21T04:15:04;10.07;;;5.05;;
80870;SDS011;70296;49.226;-122.884;2023-11-21T04:17:31;9.55;;;4.00;;
80870;SDS011;70296;49.226;-122.884;2023-11-21T04:19:57;6.88;;;3.90;;
80870;SDS011;70296;49.226;-122.884;2023-11-21T04:22:23;7.75;;;3.75;;
80870;SDS011;70296;49.226;-122.884;2023-11-21T04:24:50;7.57;;;3.63;;
80870;SDS011;70296;49.226;-122.884;2023-11-21T04:27:16;7.63;;;4.20;;
80870;SDS011;70296;49.226;-122.884;2023-11-21T04:29:45;7.20;;;3.35;;
80870;SDS011;70296;49.226;-122.884;2023-11-21T04:32:13;13.60;;;3.10;;
80870;SDS011;70296;49.226;-122.884;2023-11-21T04:34:39;6.28;;;2.85;;
80870;SDS011;70296;49.226;-122.884;2023-11-21T04:37:05;5.75;;;2.63;;
80870;SDS011;70296;49.226;-122.884;2023-11-21T04:39:32;6.15;;;2.63;;
80870;SDS011;70296;49.226;-122.884;2023-11-21T04:41:58;4.15;;;2.58;;
80870;SDS011;70296;49.226;-122.884;2023-11-21T04:44:24;6.55;;;2.72;;
80870;SDS011;70296;49.226;-122.884;2023-11-21T04:46:51;7.43;;;2.60;;
80870;SDS011;70296;49.226;-122.884;2023-11-21T04:49:17;6.90;;;2.97;;
80870;SDS011;70296;49.226;-122.884;2023-11-21T04:51:44;3.38;;;1.85;;
80870;SDS011;70296;49.226;-122.884;2023-11-21T04:54:10;8.55;;;3.25;;
80870;SDS011;70296;49.226;-122.884;2023-11-21T04:56:36;6.07;;;2.40;;
80870;SDS011;70296;49.226;-122.884;2023-11-21T04:59:02;6.60;;;2.63;;
80870;SDS011;70296;49.226;-122.884;2023-11-21T05:01:29;6.15;;;2.38;;
80870;SDS011;70296;49.226;-122.884;2023-11-21T05:03:57;7.57;;;2.38;;
80870;SDS011;70296;49.226;-122.884;2023-11-21T05:06:24;7.80;;;2.50;;
80870;SDS011;70296;49.226;-122.884;2023-11-21T05:08:50;4.93;;;2.22;;
80870;SDS011;70296;49.226;-122.884;2023-11-21T05:11:25;4.82;;;2.20;;
80870;SDS011;70296;49.226;-122.884;2023-11-21T05:13:52;5.70;;;2.17;;
80870;SDS011;70296;49.226;-122.884;2023-11-21T05:16:20;8.70;;;2.80;;
80870;SDS011;70296;49.226;-122.884;2023-11-21T05:18:47;6.97;;;2.60;;
80870;SDS011;70296;49.226;-122.884;2023-11-21T05:21:15;5.28;;;2.40;;
80870;SDS011;70296;49.226;-122.884;2023-11-21T05:23:42;8.23;;;2.20;;
80870;SDS011;70296;49.226;-122.884;2023-11-21T05:26:08;5.68;;;2.47;;
80870;SDS011;70296;49.226;-122.884;2023-11-21T05:28:34;4.88;;;2.10;;
80870;SDS011;70296;49.226;-122.884;2023-11-21T05:31:00;4.45;;;2.20;;
80870;SDS011;70296;49.226;-122.884;2023-11-21T05:33:27;3.65;;;1.90;;
80870;SDS011;70296;49.226;-122.884;2023-11-21T05:35:53;5.75;;;2.40;;
80870;SDS011;70296;49.226;-122.884;2023-11-21T05:38:19;7.05;;;2.53;;
80870;SDS011;70296;49.226;-122.884;2023-11-21T05:40:47;6.47;;;1.90;;
80870;SDS011;70296;49.226;-122.884;2023-11-21T05:43:13;3.75;;;2.10;;
80870;SDS011;70296;49.226;-122.884;2023-11-21T05:45:40;4.25;;;1.98;;
80870;SDS011;70296;49.226;-122.884;2023-11-21T05:48:07;4.53;;;2.10;;
80870;SDS011;70296;49.226;-122.884;2023-11-21T05:50:33;5.22;;;2.10;;
80870;SDS011;70296;49.226;-122.884;2023-11-21T05:52:59;5.53;;;2.25;;
80870;SDS011;70296;49.226;-122.884;2023-11-21T05:55:25;5.68;;;2.38;;
80870;SDS011;70296;49.226;-122.884;2023-11-21T05:57:54;4.65;;;2.30;;
80870;SDS011;70296;49.226;-122.884;2023-11-21T06:00:21;4.07;;;1.92;;
80870;SDS011;70296;49.226;-122.884;2023-11-21T06:02:48;4.88;;;2.13;;
80870;SDS011;70296;49.226;-122.884;2023-11-21T06:05:23;6.15;;;2.33;;
80870;SDS011;70296;49.226;-122.884;2023-11-21T06:07:50;6.13;;;3.08;;
80870;SDS011;70296;49.226;-122.884;2023-11-21T06:10:21;5.00;;;2.47;;
80870;SDS011;70296;49.226;-122.884;2023-11-21T06:12:49;5.70;;;2.40;;
80870;SDS011;70296;49.226;-122.884;2023-11-21T06:15:16;4.18;;;2.30;;
80870;SDS011;70296;49.226;-122.884;2023-11-21T06:17:45;3.70;;;1.90;;
80870;SDS011;70296;49.226;-122.884;2023-11-21T06:20:14;7.70;;;2.38;;
80870;SDS011;70296;49.226;-122.884;2023-11-21T06:22:44;5.93;;;2.00;;
80870;SDS011;70296;49.226;-122.884;2023-11-21T06:25:12;2.60;;;1.50;;
80870;SDS011;70296;49.226;-122.884;2023-11-21T06:27:42;3.58;;;1.50;;
80870;SDS011;70296;49.226;-122.884;2023-11-21T06:30:13;4.18;;;1.70;;
80870;SDS011;70296;49.226;-122.884;2023-11-21T06:32:40;4.00;;;1.88;;
80870;SDS011;70296;49.226;-122.884;2023-11-21T06:35:11;3.28;;;1.73;;
80870;SDS011;70296;49.226;-122.884;2023-11-21T06:37:38;3.28;;;1.83;;
80870;SDS011;70296;49.226;-122.884;2023-11-21T06:40:05;3.40;;;1.67;;
80870;SDS011;70296;49.226;-122.884;2023-11-21T06:42:31;2.92;;;1.58;;
80870;SDS011;70296;49.226;-122.884;2023-11-21T06:44:58;2.83;;;1.83;;
80870;SDS011;70296;49.226;-122.884;2023-11-21T06:47:29;2.63;;;1.50;;
80870;SDS011;70296;49.226;-122.884;2023-11-21T06:49:56;5.28;;;1.70;;
80870;SDS011;70296;49.226;-122.884;2023-11-21T06:52:23;4.07;;;1.95;;
80870;SDS011;70296;49.226;-122.884;2023-11-21T06:54:49;3.22;;;1.70;;
80870;SDS011;70296;49.226;-122.884;2023-11-21T06:57:15;6.20;;;2.13;;
80870;SDS011;70296;49.226;-122.884;2023-11-21T06:59:43;4.22;;;1.95;;
80870;SDS011;70296;49.226;-122.884;2023-11-21T07:02:10;2.67;;;1.55;;
80870;SDS011;70296;49.226;-122.884;2023-11-21T07:04:36;5.90;;;2.40;;
80870;SDS011;70296;49.226;-122.884;2023-11-21T07:07:03;4.10;;;1.60;;
80870;SDS011;70296;49.226;-122.884;2023-11-21T07:09:30;4.32;;;2.10;;
80870;SDS011;70296;49.226;-122.884;2023-11-21T07:11:56;6.20;;;1.90;;
80870;SDS011;70296;49.226;-122.884;2023-11-21T07:14:22;5.38;;;1.95;;
80870;SDS011;70296;49.226;-122.884;2023-11-21T07:16:50;3.95;;;2.15;;
80870;SDS011;70296;49.226;-122.884;2023-11-21T07:19:17;5.35;;;2.10;;
80870;SDS011;70296;49.226;-122.884;2023-11-21T07:21:47;4.05;;;1.90;;
80870;SDS011;70296;49.226;-122.884;2023-11-21T07:24:16;5.63;;;2.13;;
80870;SDS011;70296;49.226;-122.884;2023-11-21T07:26:42;3.88;;;1.60;;
80870;SDS011;70296;49.226;-122.884;2023-11-21T07:29:10;3.47;;;1.88;;
80870;SDS011;70296;49.226;-122.884;2023-11-21T07:31:37;4.35;;;2.40;;
80870;SDS011;70296;49.226;-122.884;2023-11-21T07:34:03;3.45;;;2.08;;
80870;SDS011;70296;49.226;-122.884;2023-11-21T07:36:29;5.07;;;2.03;;
80870;SDS011;70296;49.226;-122.884;2023-11-21T07:38:56;3.92;;;2.15;;
80870;SDS011;70296;49.226;-122.884;2023-11-21T07:41:22;4.47;;;2.33;;
80870;SDS011;70296;49.226;-122.884;2023-11-21T07:43:50;4.15;;;1.88;;
80870;SDS011;70296;49.226;-122.884;2023-11-21T07:46:16;4.68;;;2.33;;
80870;SDS011;70296;49.226;-122.884;2023-11-21T07:48:44;3.90;;;1.88;;
80870;SDS011;70296;49.226;-122.884;2023-11-21T07:51:11;4.35;;;2.30;;
80870;SDS011;70296;49.226;-122.884;2023-11-21T07:53:38;5.18;;;2.20;;
80870;SDS011;70296;49.226;-122.884;2023-11-21T07:56:06;5.35;;;2.17;;
80870;SDS011;70296;49.226;-122.884;2023-11-21T07:58:34;4.13;;;1.92;;
80870;SDS011;70296;49.226;-122.884;2023-11-21T08:01:02;4.00;;;2.20;;
80870;SDS011;70296;49.226;-122.884;2023-11-21T08:03:30;4.93;;;2.20;;
80870;SDS011;70296;49.226;-122.884;2023-11-21T08:05:57;4.22;;;2.30;;
80870;SDS011;70296;49.226;-122.884;2023-11-21T08:08:23;3.95;;;2.00;;
80870;SDS011;70296;49.226;-122.884;2023-11-21T08:10:50;4.03;;;1.85;;
80870;SDS011;70296;49.226;-122.884;2023-11-21T08:13:26;3.85;;;1.90;;
80870;SDS011;70296;49.226;-122.884;2023-11-21T08:15:58;6.18;;;1.80;;
80870;SDS011;70296;49.226;-122.884;2023-11-21T08:18:28;4.85;;;2.25;;
80870;SDS011;70296;49.226;-122.884;2023-11-21T08:20:55;4.43;;;1.92;;
80870;SDS011;70296;49.226;-122.884;2023-11-21T08:23:21;4.18;;;1.98;;
80870;SDS011;70296;49.226;-122.884;2023-11-21T08:25:51;4.72;;;2.10;;
80870;SDS011;70296;49.226;-122.884;2023-11-21T08:28:19;4.05;;;2.00;;
80870;SDS011;70296;49.226;-122.884;2023-11-21T08:30:47;5.38;;;2.05;;
80870;SDS011;70296;49.226;-122.884;2023-11-21T08:33:13;4.97;;;2.25;;
80870;SDS011;70296;49.226;-122.884;2023-11-21T08:35:39;4.45;;;2.25;;
80870;SDS011;70296;49.226;-122.884;2023-11-21T08:38:06;9.48;;;2.05;;
80870;SDS011;70296;49.226;-122.884;2023-11-21T08:40:32;4.53;;;2.40;;
80870;SDS011;70296;49.226;-122.884;2023-11-21T08:42:58;3.63;;;2.08;;
80870;SDS011;70296;49.226;-122.884;2023-11-21T08:45:25;5.30;;;2.70;;
80870;SDS011;70296;49.226;-122.884;2023-11-21T08:47:52;5.55;;;2.53;;
80870;SDS011;70296;49.226;-122.884;2023-11-21T08:50:18;4.57;;;2.03;;
80870;SDS011;70296;49.226;-122.884;2023-11-21T08:52:44;6.00;;;2.53;;
80870;SDS011;70296;49.226;-122.884;2023-11-21T08:55:14;5.25;;;2.08;;
80870;SDS011;70296;49.226;-122.884;2023-11-21T08:57:42;4.35;;;2.17;;
80870;SDS011;70296;49.226;-122.884;2023-11-21T09:00:10;4.68;;;1.95;;
80870;SDS011;70296;49.226;-122.884;2023-11-21T09:02:39;5.70;;;2.38;;
80870;SDS011;70296;49.226;-122.884;2023-11-21T09:05:10;4.55;;;2.33;;
80870;SDS011;70296;49.226;-122.884;2023-11-21T09:07:38;5.07;;;2.20;;
80870;SDS011;70296;49.226;-122.884;2023-11-21T09:10:05;3.45;;;1.60;;
80870;SDS011;70296;49.226;-122.884;2023-11-21T09:12:33;5.00;;;1.80;;
80870;SDS011;70296;49.226;-122.884;2023-11-21T09:15:04;3.38;;;2.00;;
80870;SDS011;70296;49.226;-122.884;2023-11-21T09:17:34;2.88;;;1.70;;
80870;SDS011;70296;49.226;-122.884;2023-11-21T09:20:00;4.13;;;2.10;;
80870;SDS011;70296;49.226;-122.884;2023-11-21T09:22:28;2.60;;;1.55;;
80870;SDS011;70296;49.226;-122.884;2023-11-21T09:24:56;3.00;;;1.50;;
80870;SDS011;70296;49.226;-122.884;2023-11-21T09:27:23;4.95;;;1.90;;
80870;SDS011;70296;49.226;-122.884;2023-11-21T09:29:51;3.20;;;1.70;;
80870;SDS011;70296;49.226;-122.884;2023-11-21T09:32:19;3.17;;;1.58;;
80870;SDS011;70296;49.226;-122.884;2023-11-21T09:34:50;3.60;;;1.88;;
80870;SDS011;70296;49.226;-122.884;2023-11-21T09:37:17;3.00;;;1.75;;
80870;SDS011;70296;49.226;-122.884;2023-11-21T09:39:44;2.67;;;1.55;;
80870;SDS011;70296;49.226;-122.884;2023-11-21T09:42:19;2.63;;;1.73;;
80870;SDS011;70296;49.226;-122.884;2023-11-21T09:47:44;3.90;;;1.60;;
80870;SDS011;70296;49.226;-122.884;2023-11-21T09:50:11;3.95;;;1.92;;
80870;SDS011;70296;49.226;-122.884;2023-11-21T09:52:51;3.58;;;1.75;;
80870;SDS011;70296;49.226;-122.884;2023-11-21T09:55:22;3.53;;;1.40;;
80870;SDS011;70296;49.226;-122.884;2023-11-21T09:57:54;4.22;;;1.52;;
80870;SDS011;70296;49.226;-122.884;2023-11-21T10:00:22;3.20;;;1.23;;
80870;SDS011;70296;49.226;-122.884;2023-11-21T10:02:49;4.13;;;1.30;;
80870;SDS011;70296;49.226;-122.884;2023-11-21T10:05:16;3.22;;;1.67;;
80870;SDS011;70296;49.226;-122.884;2023-11-21T10:07:46;4.05;;;1.80;;
80870;SDS011;70296;49.226;-122.884;2023-11-21T10:10:13;6.20;;;1.75;;
80870;SDS011;70296;49.226;-122.884;2023-11-21T10:12:40;3.53;;;1.77;;
80870;SDS011;70296;49.226;-122.884;2023-11-21T10:15:08;3.85;;;1.90;;
80870;SDS011;70296;49.226;-122.884;2023-11-21T10:17:37;3.90;;;1.85;;
80870;SDS011;70296;49.226;-122.884;2023-11-21T10:20:08;3.83;;;1.58;;
80870;SDS011;70296;49.226;-122.884;2023-11-21T10:22:39;4.22;;;2.13;;
80870;SDS011;70296;49.226;-122.884;2023-11-21T10:25:07;2.85;;;1.60;;
80870;SDS011;70296;49.226;-122.884;2023-11-21T10:27:44;3.58;;;2.00;;
80870;SDS011;70296;49.226;-122.884;2023-11-21T10:30:18;3.60;;;1.70;;
80870;SDS011;70296;49.226;-122.884;2023-11-21T10:32:44;2.58;;;1.60;;
80870;SDS011;70296;49.226;-122.884;2023-11-21T10:35:11;2.85;;;1.60;;
80870;SDS011;70296;49.226;-122.884;2023-11-21T10:37:40;2.80;;;1.55;;
80870;SDS011;70296;49.226;-122.884;2023-11-21T10:40:09;4.70;;;1.80;;
80870;SDS011;70296;49.226;-122.884;2023-11-21T10:42:41;3.33;;;1.58;;
80870;SDS011;70296;49.226;-122.884;2023-11-21T10:45:07;4.00;;;1.50;;
80870;SDS011;70296;49.226;-122.884;2023-11-21T10:47:39;3.20;;;1.80;;
80870;SDS011;70296;49.226;-122.884;2023-11-21T10:50:09;3.88;;;1.60;;
80870;SDS011;70296;49.226;-122.884;2023-11-21T10:52:42;3.45;;;1.60;;
80870;SDS011;70296;49.226;-122.884;2023-11-21T10:55:16;3.55;;;1.98;;
80870;SDS011;70296;49.226;-122.884;2023-11-21T10:57:48;5.22;;;1.63;;
80870;SDS011;70296;49.226;-122.884;2023-11-21T11:00:15;4.97;;;2.50;;
80870;SDS011;70296;49.226;-122.884;2023-11-21T11:02:44;4.18;;;1.88;;
80870;SDS011;70296;49.226;-122.884;2023-11-21T11:05:13;10.38;;;2.00;;
80870;SDS011;70296;49.226;-122.884;2023-11-21T11:07:44;4.90;;;1.90;;
80870;SDS011;70296;49.226;-122.884;2023-11-21T11:10:38;5.70;;;1.85;;
80870;SDS011;70296;49.226;-122.884;2023-11-21T11:13:04;3.58;;;1.90;;
80870;SDS011;70296;49.226;-122.884;2023-11-21T11:15:32;5.60;;;1.95;;
80870;SDS011;70296;49.226;-122.884;2023-11-21T11:17:59;3.55;;;1.83;;
80870;SDS011;70296;49.226;-122.884;2023-11-21T11:20:27;3.35;;;1.50;;
80870;SDS011;70296;49.226;-122.884;2023-11-21T11:29:01;3.53;;;1.80;;
80870;SDS011;70296;49.226;-122.884;2023-11-21T11:34:26;5.65;;;2.10;;
80870;SDS011;70296;49.226;-122.884;2023-11-21T11:37:02;5.53;;;1.77;;
80870;SDS011;70296;49.226;-122.884;2023-11-21T11:39:35;3.08;;;1.60;;
80870;SDS011;70296;49.226;-122.884;2023-11-21T11:42:04;3.72;;;1.52;;
80870;SDS011;70296;49.226;-122.884;2023-11-21T11:47:13;4.45;;;1.98;;
80870;SDS011;70296;49.226;-122.884;2023-11-21T11:50:08;3.33;;;1.60;;
80870;SDS011;70296;49.226;-122.884;2023-11-21T11:52:46;3.70;;;1.85;;
80870;SDS011;70296;49.226;-122.884;2023-11-21T11:55:19;3.50;;;1.88;;
80870;SDS011;70296;49.226;-122.884;2023-11-21T11:57:50;4.40;;;2.15;;
80870;SDS011;70296;49.226;-122.884;2023-11-21T12:02:58;3.40;;;2.00;;
80870;SDS011;70296;49.226;-122.884;2023-11-21T12:05:34;3.97;;;1.77;;
80870;SDS011;70296;49.226;-122.884;2023-11-21T12:08:04;4.03;;;1.75;;
80870;SDS011;70296;49.226;-122.884;2023-11-21T12:10:35;3.72;;;2.10;;
80870;SDS011;70296;49.226;-122.884;2023-11-21T12:13:07;4.60;;;1.50;;
80870;SDS011;70296;49.226;-122.884;2023-11-21T12:15:39;3.08;;;1.75;;
80870;SDS011;70296;49.226;-122.884;2023-11-21T12:18:06;4.90;;;2.05;;
80870;SDS011;70296;49.226;-122.884;2023-11-21T12:20:33;4.00;;;1.77;;
80870;SDS011;70296;49.226;-122.884;2023-11-21T12:23:04;4.32;;;2.33;;
80870;SDS011;70296;49.226;-122.884;2023-11-21T12:25:31;4.57;;;1.90;;
80870;SDS011;70296;49.226;-122.884;2023-11-21T12:27:58;5.50;;;2.40;;
80870;SDS011;70296;49.226;-122.884;2023-11-21T12:30:26;4.18;;;1.80;;
80870;SDS011;70296;49.226;-122.884;2023-11-21T12:32:56;5.18;;;2.45;;
80870;SDS011;70296;49.226;-122.884;2023-11-21T12:35:27;4.82;;;2.17;;
80870;SDS011;70296;49.226;-122.884;2023-11-21T12:37:55;5.80;;;2.33;;
80870;SDS011;70296;49.226;-122.884;2023-11-21T12:40:25;12.30;;;2.30;;
80870;SDS011;70296;49.226;-122.884;2023-11-21T12:42:57;6.68;;;2.63;;
80870;SDS011;70296;49.226;-122.884;2023-11-21T12:45:25;6.47;;;2.45;;
80870;SDS011;70296;49.226;-122.884;2023-11-21T12:47:55;27.70;;;4.95;;
80870;SDS011;70296;49.226;-122.884;2023-11-21T12:50:32;26.45;;;4.07;;
80870;SDS011;70296;49.226;-122.884;2023-11-21T12:53:08;21.63;;;3.45;;
80870;SDS011;70296;49.226;-122.884;2023-11-21T12:55:43;8.88;;;2.33;;
80870;SDS011;70296;49.226;-122.884;2023-11-21T12:58:15;6.90;;;1.80;;
80870;SDS011;70296;49.226;-122.884;2023-11-21T13:03:12;3.03;;;1.73;;
80870;SDS011;70296;49.226;-122.884;2023-11-21T13:05:50;2.65;;;1.40;;
80870;SDS011;70296;49.226;-122.884;2023-11-21T13:08:16;11.60;;;3.15;;
80870;SDS011;70296;49.226;-122.884;2023-11-21T13:10:46;8.63;;;2.50;;
80870;SDS011;70296;49.226;-122.884;2023-11-21T13:13:15;3.45;;;1.40;;
80870;SDS011;70296;49.226;-122.884;2023-11-21T13:16:02;3.63;;;1.90;;
80870;SDS011;70296;49.226;-122.884;2023-11-21T13:18:33;2.60;;;1.50;;
80870;SDS011;70296;49.226;-122.884;2023-11-21T13:21:01;2.75;;;1.55;;
80870;SDS011;70296;49.226;-122.884;2023-11-21T13:23:42;4.25;;;1.83;;
80870;SDS011;70296;49.226;-122.884;2023-11-21T13:26:11;4.30;;;1.60;;
80870;SDS011;70296;49.226;-122.884;2023-11-21T13:28:39;4.78;;;1.77;;
80870;SDS011;70296;49.226;-122.884;2023-11-21T13:33:54;7.43;;;2.00;;
80870;SDS011;70296;49.226;-122.884;2023-11-21T13:36:30;5.78;;;1.75;;
80870;SDS011;70296;49.226;-122.884;2023-11-21T13:38:58;9.32;;;2.30;;
80870;SDS011;70296;49.226;-122.884;2023-11-21T13:41:30;6.88;;;2.10;;
80870;SDS011;70296;49.226;-122.884;2023-11-21T13:43:56;6.50;;;2.15;;
80870;SDS011;70296;49.226;-122.884;2023-11-21T13:46:41;5.72;;;2.47;;
80870;SDS011;70296;49.226;-122.884;2023-11-21T13:49:08;3.97;;;1.90;;
80870;SDS011;70296;49.226;-122.884;2023-11-21T13:51:36;2.67;;;1.88;;
80870;SDS011;70296;49.226;-122.884;2023-11-21T13:54:13;3.10;;;1.63;;
80870;SDS011;70296;49.226;-122.884;2023-11-21T13:56:40;7.30;;;2.05;;
80870;SDS011;70296;49.226;-122.884;2023-11-21T13:59:09;3.30;;;1.90;;
80870;SDS011;70296;49.226;-122.884;2023-11-21T14:01:51;3.03;;;1.73;;
80870;SDS011;70296;49.226;-122.884;2023-11-21T14:04:20;6.80;;;1.92;;
80870;SDS011;70296;49.226;-122.884;2023-11-21T14:07:06;5.57;;;2.25;;
80870;SDS011;70296;49.226;-122.884;2023-11-21T14:09:55;3.92;;;2.03;;
80870;SDS011;70296;49.226;-122.884;2023-11-21T14:12:21;4.65;;;2.42;;
80870;SDS011;70296;49.226;-122.884;2023-11-21T14:14:47;6.75;;;3.67;;
80870;SDS011;70296;49.226;-122.884;2023-11-21T14:17:14;8.75;;;4.20;;
80870;SDS011;70296;49.226;-122.884;2023-11-21T14:19:40;7.78;;;4.28;;
80870;SDS011;70296;49.226;-122.884;2023-11-21T14:22:11;7.30;;;4.40;;
80870;SDS011;70296;49.226;-122.884;2023-11-21T14:24:38;42.47;;;17.13;;
80870;SDS011;70296;49.226;-122.884;2023-11-21T14:27:09;60.72;;;23.42;;
80870;SDS011;70296;49.226;-122.884;2023-11-21T14:29:35;18.52;;;6.80;;
80870;SDS011;70296;49.226;-122.884;2023-11-21T14:32:06;6.95;;;2.83;;
80870;SDS011;70296;49.226;-122.884;2023-11-21T14:34:33;8.48;;;3.53;;
80870;SDS011;70296;49.226;-122.884;2023-11-21T14:36:59;8.25;;;3.50;;
80870;SDS011;70296;49.226;-122.884;2023-11-21T14:39:28;6.10;;;2.90;;